KBOK/BOK METAR and TAF weather

Enter ICAO airport designator
Station Type Date Time Source
KBOK METAR 2023/02/04 02:56 UTC NOAA

KBOK 040256Z AUTO 14005KT 7SM SCT015 BKN025 OVC031 09/09 A3018 RMK AO2 SLP221 6//// T00940094 53003


Station Type Date Time Source
KBOK Decoded METAR 2023/02/04 02:56 UTC NOAA

Brookings, Brookings Airport, OR, United States (KBOK) 42-04-28N 124-17-24W
Feb 03, 2023 - 09:56 PM EST / 2023.02.04 0256 UTC
Wind: from the SE (140 degrees) at 6 MPH (5 KT):0
Visibility: 7 mile(s):0
Sky conditions: overcast
Temperature: 48.9 F (9.4 C)
Dew Point: 48.9 F (9.4 C)
Relative Humidity: 100%
Pressure (altimeter): 30.18 in. Hg (1022 hPa)
Pressure tendency: 0.01 inches (0.3 hPa) higher than three hours ago
ob: KBOK 040256Z AUTO 14005KT 7SM SCT015 BKN025 OVC031 09/09 A3018 RMK AO2 SLP221 6//// T00940094 53003
cycle: 3

Station Type Date Time Source
KBOK TAF UTC NOAA

Error!

Example: see airport list